createdAt,value
2022-10-19T00:02:14.973Z,97.23
2022-10-19T00:04:41.863Z,97.47
2022-10-19T00:07:08.696Z,96.99
2022-10-19T00:09:35.245Z,96.31
2022-10-19T00:12:01.785Z,96.65
2022-10-19T00:14:28.375Z,96.55
2022-10-19T00:16:55.636Z,96.65
2022-10-19T00:19:24.993Z,96.44
2022-10-19T00:21:51.719Z,96.72
2022-10-19T00:24:18.322Z,96.91
2022-10-19T00:26:45.054Z,97.76
2022-10-19T00:29:15.643Z,98.81
2022-10-19T00:31:42.707Z,98.88
2022-10-19T00:34:09.676Z,97.79
2022-10-19T00:36:39.157Z,98.98
2022-10-19T00:39:08.655Z,98.24
2022-10-19T00:41:36.777Z,99.08
2022-10-19T00:44:07.781Z,98.72
2022-10-19T00:46:37.281Z,98.02
2022-10-19T00:49:12.931Z,98.12
2022-10-19T00:51:42.089Z,99.39
2022-10-19T00:54:09.720Z,100.00
2022-10-19T00:56:39.868Z,99.92
2022-10-19T00:59:07.686Z,100.00
2022-10-19T01:01:35.073Z,99.62
2022-10-19T01:04:03.768Z,99.63
2022-10-19T01:06:31.115Z,99.45
2022-10-19T01:08:57.656Z,99.50
2022-10-19T01:11:40.110Z,99.14
2022-10-19T01:14:28.646Z,99.37
2022-10-19T01:17:01.188Z,99.20
2022-10-19T01:19:52.630Z,100.00
2022-10-19T01:22:31.190Z,99.86
2022-10-19T01:25:45.937Z,100.00
2022-10-19T01:28:57.673Z,99.46
2022-10-19T01:31:31.171Z,99.83
2022-10-19T01:34:14.939Z,99.73
2022-10-19T01:36:44.444Z,99.96
2022-10-19T01:39:23.095Z,100.00
2022-10-19T01:42:12.796Z,100.00
2022-10-19T01:44:47.165Z,100.00
2022-10-19T01:47:19.735Z,100.00
2022-10-19T01:49:53.495Z,100.00
2022-10-19T01:52:23.544Z,100.00
2022-10-19T01:54:54.318Z,100.00
2022-10-19T01:57:28.095Z,100.00
2022-10-19T01:59:57.250Z,100.00
2022-10-19T02:02:27.255Z,100.00
2022-10-19T02:04:55.092Z,100.00
2022-10-19T02:07:24.826Z,100.00
2022-10-19T02:09:51.532Z,100.00
2022-10-19T02:12:20.386Z,100.00
2022-10-19T02:14:51.725Z,100.00
2022-10-19T02:17:24.023Z,100.00
2022-10-19T02:19:52.133Z,100.00
2022-10-19T02:22:18.698Z,100.00
2022-10-19T02:24:45.342Z,100.00
2022-10-19T02:27:12.708Z,100.00
2022-10-19T02:29:40.225Z,100.00
2022-10-19T02:32:10.398Z,100.00
2022-10-19T02:34:39.177Z,100.00
2022-10-19T02:37:06.680Z,100.00
2022-10-19T02:39:33.788Z,100.00
2022-10-19T02:42:18.636Z,100.00
2022-10-19T02:44:57.796Z,100.00
2022-10-19T02:47:28.351Z,100.00
2022-10-19T02:49:54.875Z,100.00
2022-10-19T02:52:21.458Z,100.00
2022-10-19T02:54:48.228Z,100.00
2022-10-19T02:57:19.642Z,100.00
2022-10-19T02:59:46.890Z,100.00
2022-10-19T03:02:15.066Z,100.00
2022-10-19T03:04:42.084Z,100.00
2022-10-19T03:07:09.401Z,100.00
2022-10-19T03:09:36.015Z,100.00
2022-10-19T03:12:02.875Z,100.00
2022-10-19T03:14:29.656Z,100.00
2022-10-19T03:16:56.235Z,100.00
2022-10-19T03:19:23.164Z,100.00
2022-10-19T03:21:50.522Z,100.00
2022-10-19T03:24:17.533Z,100.00
2022-10-19T03:26:44.261Z,100.00
2022-10-19T03:29:10.873Z,100.00
2022-10-19T03:31:37.547Z,100.00
2022-10-19T03:34:04.161Z,100.00
2022-10-19T03:36:33.662Z,100.00
2022-10-19T03:39:02.355Z,100.00
2022-10-19T03:41:31.326Z,100.00
2022-10-19T03:43:57.947Z,100.00
2022-10-19T03:46:24.831Z,100.00
2022-10-19T03:48:51.410Z,100.00
2022-10-19T03:51:20.725Z,100.00
2022-10-19T03:53:47.979Z,100.00
2022-10-19T03:56:18.014Z,100.00
2022-10-19T03:58:46.458Z,100.00
2022-10-19T04:01:15.837Z,100.00
2022-10-19T04:03:42.802Z,100.00
2022-10-19T04:06:15.793Z,100.00
2022-10-19T04:08:48.041Z,100.00
2022-10-19T04:11:21.055Z,100.00
2022-10-19T04:13:50.312Z,100.00
2022-10-19T04:16:17.374Z,100.00
2022-10-19T04:18:44.036Z,100.00
2022-10-19T04:21:24.425Z,100.00
2022-10-19T04:23:59.008Z,100.00
2022-10-19T04:26:26.126Z,100.00
2022-10-19T04:28:52.789Z,100.00
2022-10-19T04:31:19.797Z,100.00
2022-10-19T04:36:18.173Z,100.00
2022-10-19T04:38:44.782Z,100.00
2022-10-19T04:41:14.334Z,100.00
2022-10-19T04:43:41.347Z,100.00
2022-10-19T04:46:13.990Z,100.00
2022-10-19T04:48:41.475Z,100.00
2022-10-19T04:51:09.406Z,100.00
2022-10-19T04:53:38.107Z,100.00
2022-10-19T04:56:06.876Z,100.00
2022-10-19T04:58:33.603Z,100.00
2022-10-19T05:01:00.390Z,100.00
2022-10-19T05:03:27.405Z,100.00
2022-10-19T05:05:53.948Z,100.00
2022-10-19T05:08:20.544Z,100.00
2022-10-19T05:10:47.835Z,100.00
2022-10-19T05:13:14.789Z,100.00
2022-10-19T05:15:41.407Z,100.00
2022-10-19T05:18:08.777Z,100.00
2022-10-19T05:20:35.359Z,100.00
2022-10-19T05:23:06.213Z,100.00
2022-10-19T05:25:34.014Z,100.00
2022-10-19T05:28:00.577Z,100.00
2022-10-19T05:30:27.255Z,100.00
2022-10-19T05:32:54.088Z,100.00
2022-10-19T05:35:22.666Z,100.00
2022-10-19T05:37:54.595Z,100.00
2022-10-19T05:40:21.364Z,100.00
2022-10-19T05:42:48.058Z,100.00
2022-10-19T05:45:14.923Z,100.00
2022-10-19T05:47:41.500Z,100.00
2022-10-19T05:50:08.703Z,100.00
2022-10-19T05:52:35.293Z,100.00
2022-10-19T05:55:01.949Z,100.00
2022-10-19T05:57:28.493Z,100.00
2022-10-19T05:59:58.997Z,100.00
2022-10-19T06:02:25.510Z,100.00
2022-10-19T06:04:52.193Z,100.00
2022-10-19T06:07:18.734Z,100.00
2022-10-19T06:09:46.028Z,100.00
2022-10-19T06:12:12.782Z,100.00
2022-10-19T06:14:40.303Z,100.00
2022-10-19T06:17:06.962Z,100.00
2022-10-19T06:19:33.603Z,100.00
2022-10-19T06:22:00.320Z,100.00
2022-10-19T06:24:26.940Z,100.00
2022-10-19T06:26:55.826Z,100.00
2022-10-19T06:29:22.440Z,100.00
2022-10-19T06:31:49.034Z,100.00
2022-10-19T06:34:15.759Z,100.00
2022-10-19T06:36:42.417Z,100.00
2022-10-19T06:39:09.515Z,100.00
2022-10-19T06:41:36.255Z,100.00
2022-10-19T06:44:32.075Z,100.00
2022-10-19T06:46:58.643Z,100.00
2022-10-19T06:49:25.256Z,100.00
2022-10-19T06:51:51.830Z,100.00
2022-10-19T06:54:18.442Z,100.00
2022-10-19T06:56:45.096Z,100.00
2022-10-19T06:59:14.733Z,100.00
2022-10-19T07:01:41.561Z,100.00
2022-10-19T07:04:08.182Z,100.00
2022-10-19T07:06:34.732Z,100.00
2022-10-19T07:09:02.685Z,100.00
2022-10-19T07:11:29.401Z,100.00
2022-10-19T07:13:56.126Z,100.00
2022-10-19T07:16:23.096Z,100.00
2022-10-19T07:18:52.217Z,100.00
2022-10-19T07:21:20.545Z,100.00
2022-10-19T07:23:48.152Z,100.00
2022-10-19T07:26:23.516Z,100.00
2022-10-19T07:28:50.925Z,100.00
2022-10-19T07:31:20.480Z,100.00
2022-10-19T07:33:51.505Z,100.00
2022-10-19T07:36:17.992Z,100.00
2022-10-19T07:38:44.611Z,100.00
2022-10-19T07:41:13.964Z,100.00
2022-10-19T07:43:42.094Z,100.00
2022-10-19T07:46:19.200Z,100.00
2022-10-19T07:48:46.643Z,100.00
2022-10-19T07:51:15.666Z,100.00
2022-10-19T07:53:43.012Z,100.00
2022-10-19T07:56:18.616Z,100.00
2022-10-19T07:58:45.769Z,100.00
2022-10-19T08:01:18.363Z,100.00
2022-10-19T08:06:32.982Z,100.00
2022-10-19T08:09:00.264Z,100.00
2022-10-19T08:11:30.166Z,100.00
2022-10-19T08:13:59.450Z,100.00
2022-10-19T08:16:40.203Z,100.00
2022-10-19T08:19:09.980Z,100.00
2022-10-19T08:21:38.667Z,100.00
2022-10-19T08:24:06.672Z,99.02
2022-10-19T08:26:37.666Z,98.52
2022-10-19T08:29:07.639Z,98.32
2022-10-19T08:31:34.614Z,97.26
2022-10-19T08:34:01.215Z,96.55
2022-10-19T08:36:31.239Z,95.57
2022-10-19T08:38:59.204Z,94.58
2022-10-19T08:42:09.352Z,94.47
2022-10-19T08:45:20.606Z,93.07
2022-10-19T08:48:04.516Z,92.57
2022-10-19T08:50:44.523Z,94.19
2022-10-19T08:53:19.307Z,93.19
2022-10-19T08:56:04.819Z,93.02
2022-10-19T08:59:03.634Z,93.89
2022-10-19T09:01:56.861Z,93.36
2022-10-19T09:04:26.590Z,93.51
2022-10-19T09:07:11.693Z,91.77
2022-10-19T09:09:44.375Z,88.54
2022-10-19T09:12:16.588Z,87.43
2022-10-19T09:14:57.710Z,86.60
2022-10-19T09:17:25.351Z,84.93
2022-10-19T09:19:52.532Z,85.93
2022-10-19T09:22:29.443Z,84.99
2022-10-19T09:25:05.477Z,83.40
2022-10-19T09:27:38.876Z,81.71
2022-10-19T09:30:18.068Z,80.26
2022-10-19T09:32:45.252Z,79.59
2022-10-19T09:35:23.362Z,78.19
2022-10-19T09:37:51.333Z,76.49
2022-10-19T09:40:28.279Z,75.85
2022-10-19T09:42:59.024Z,73.05
2022-10-19T09:45:54.965Z,74.21
2022-10-19T09:48:33.634Z,74.34
2022-10-19T09:51:02.297Z,74.35
2022-10-19T09:53:30.073Z,74.55
2022-10-19T09:56:04.909Z,77.90
2022-10-19T09:58:33.156Z,73.83
2022-10-19T10:01:02.180Z,73.82
2022-10-19T10:03:40.440Z,75.19
2022-10-19T10:06:14.342Z,74.45
2022-10-19T10:08:58.063Z,73.29
2022-10-19T10:11:38.014Z,72.12
2022-10-19T10:14:19.647Z,71.39
2022-10-19T10:16:46.914Z,72.10
2022-10-19T10:19:16.520Z,71.30
2022-10-19T10:21:45.743Z,70.09
2022-10-19T10:24:18.018Z,69.65
2022-10-19T10:26:50.752Z,68.82
2022-10-19T10:29:32.623Z,69.03
2022-10-19T10:32:05.096Z,68.92
2022-10-19T10:34:45.952Z,68.58
2022-10-19T10:37:40.379Z,69.02
2022-10-19T10:40:23.336Z,70.60
2022-10-19T10:42:52.569Z,68.40
2022-10-19T10:45:22.149Z,68.71
2022-10-19T10:47:48.783Z,69.47
2022-10-19T10:50:31.349Z,68.58
2022-10-19T10:53:04.567Z,69.35
2022-10-19T10:55:32.099Z,67.88
2022-10-19T10:58:12.130Z,67.75
2022-10-19T11:00:40.344Z,67.76
2022-10-19T11:03:16.344Z,66.74
2022-10-19T11:05:48.789Z,67.43
2022-10-19T11:08:20.010Z,66.99
2022-10-19T11:11:14.030Z,66.58
2022-10-19T11:13:42.915Z,66.38
2022-10-19T11:16:29.793Z,68.79
2022-10-19T11:19:07.265Z,67.54
2022-10-19T11:21:55.216Z,67.53
2022-10-19T11:24:45.089Z,66.84
2022-10-19T11:27:56.580Z,67.77
2022-10-19T11:30:24.979Z,67.77
2022-10-19T11:33:05.874Z,66.56
2022-10-19T11:35:53.166Z,66.93
2022-10-19T11:38:40.250Z,66.57
2022-10-19T11:41:26.935Z,66.85
2022-10-19T11:44:00.442Z,66.46
2022-10-19T11:46:29.920Z,66.81
2022-10-19T11:49:08.660Z,67.03
2022-10-19T11:51:35.202Z,67.50
2022-10-19T11:54:04.720Z,67.27
2022-10-19T11:56:58.243Z,66.79
2022-10-19T12:00:13.514Z,67.49
2022-10-19T12:03:04.083Z,66.16
2022-10-19T12:05:43.262Z,65.76
2022-10-19T12:08:12.777Z,64.66
2022-10-19T12:11:04.992Z,66.48
2022-10-19T12:13:55.675Z,62.41
2022-10-19T12:16:27.666Z,63.27
2022-10-19T12:18:58.448Z,62.58
2022-10-19T12:21:44.636Z,62.46
2022-10-19T12:24:17.914Z,63.07
2022-10-19T12:26:45.772Z,66.10
2022-10-19T12:29:16.915Z,60.13
2022-10-19T12:31:45.371Z,61.50
2022-10-19T12:34:49.454Z,65.97
2022-10-19T12:37:28.172Z,64.76
2022-10-19T12:40:12.789Z,63.73
2022-10-19T12:42:51.485Z,68.89
2022-10-19T12:45:33.604Z,60.29
2022-10-19T12:48:10.878Z,62.55
2022-10-19T12:50:49.795Z,60.25
2022-10-19T12:53:28.734Z,62.25
2022-10-19T12:56:20.591Z,61.05
2022-10-19T12:58:53.315Z,63.25
2022-10-19T13:01:44.359Z,62.11
2022-10-19T13:04:13.357Z,62.68
2022-10-19T13:06:46.852Z,63.68
2022-10-19T13:09:28.041Z,63.05
2022-10-19T13:12:14.993Z,62.45
2022-10-19T13:14:53.245Z,62.23
2022-10-19T13:17:38.214Z,62.55
2022-10-19T13:20:14.278Z,64.90
2022-10-19T13:22:47.077Z,64.86
2022-10-19T13:25:17.037Z,63.11
2022-10-19T13:27:45.115Z,62.75
2022-10-19T13:30:41.830Z,62.80
2022-10-19T13:33:33.037Z,62.67
2022-10-19T13:35:59.520Z,64.38
2022-10-19T13:38:32.111Z,62.06
2022-10-19T13:41:44.419Z,63.96
2022-10-19T13:44:15.226Z,63.04
2022-10-19T13:46:53.286Z,62.88
2022-10-19T13:49:33.372Z,63.28
2022-10-19T13:52:12.024Z,66.46
2022-10-19T13:54:56.908Z,64.54
2022-10-19T13:57:44.147Z,63.91
2022-10-19T14:00:24.000Z,65.25
2022-10-19T14:03:05.370Z,64.01
2022-10-19T14:06:15.881Z,64.32
2022-10-19T14:09:13.550Z,64.59
2022-10-19T14:11:43.083Z,64.92
2022-10-19T14:14:12.686Z,64.36
2022-10-19T14:16:56.150Z,63.17
2022-10-19T14:19:27.210Z,64.45
2022-10-19T14:21:59.392Z,63.25
2022-10-19T14:24:32.080Z,63.79
2022-10-19T14:27:07.018Z,63.65
2022-10-19T14:29:48.157Z,63.59
2022-10-19T14:32:16.028Z,65.55
2022-10-19T14:34:47.379Z,64.35
2022-10-19T14:37:19.142Z,63.79
2022-10-19T14:40:07.343Z,63.40
2022-10-19T14:42:45.543Z,64.76
2022-10-19T14:45:15.738Z,63.91
2022-10-19T14:48:01.200Z,65.23
2022-10-19T14:50:40.286Z,64.38
2022-10-19T14:53:32.941Z,64.67
2022-10-19T14:56:06.337Z,64.62
2022-10-19T14:58:40.374Z,64.97
2022-10-19T15:01:07.928Z,65.62
2022-10-19T15:03:34.755Z,65.54
2022-10-19T15:06:04.267Z,66.29
2022-10-19T15:08:37.298Z,66.45
2022-10-19T15:11:06.353Z,66.36
2022-10-19T15:13:42.193Z,66.55
2022-10-19T15:16:34.317Z,68.50
2022-10-19T15:19:18.003Z,67.48
2022-10-19T15:21:46.765Z,67.08
2022-10-19T15:24:26.051Z,67.81
2022-10-19T15:27:06.478Z,65.89
2022-10-19T15:29:33.429Z,64.84
2022-10-19T15:32:22.961Z,65.96
2022-10-19T15:34:49.467Z,65.01
2022-10-19T15:37:21.781Z,65.00
2022-10-19T15:39:49.501Z,66.53
2022-10-19T15:42:39.370Z,68.54
2022-10-19T15:45:39.220Z,68.23
2022-10-19T15:48:34.343Z,69.97
2022-10-19T15:51:01.271Z,70.04
2022-10-19T15:53:27.879Z,70.91
2022-10-19T15:55:54.590Z,70.86
2022-10-19T15:58:21.540Z,71.50
2022-10-19T16:00:48.200Z,71.52
2022-10-19T16:03:14.707Z,72.58
2022-10-19T16:05:41.320Z,73.44
2022-10-19T16:08:10.193Z,73.08
2022-10-19T16:10:39.002Z,73.55
2022-10-19T16:13:05.607Z,73.87
2022-10-19T16:15:32.463Z,74.70
2022-10-19T16:18:00.142Z,75.29
2022-10-19T16:20:29.211Z,75.47
2022-10-19T16:22:56.003Z,77.18
2022-10-19T16:25:22.653Z,76.23
2022-10-19T16:27:49.427Z,76.44
2022-10-19T16:30:16.211Z,76.26
2022-10-19T16:35:10.144Z,77.33
2022-10-19T16:37:37.200Z,78.00
2022-10-19T16:40:05.314Z,79.46
2022-10-19T16:42:32.312Z,79.24
2022-10-19T16:44:59.243Z,79.45
2022-10-19T16:47:25.905Z,80.23
2022-10-19T16:50:00.615Z,80.27
2022-10-19T16:52:28.858Z,79.93
2022-10-19T16:54:55.512Z,79.20
2022-10-19T16:57:22.155Z,79.36
2022-10-19T17:02:21.693Z,80.17
2022-10-19T17:04:48.369Z,81.23
2022-10-19T17:07:15.338Z,81.17
2022-10-19T17:09:42.798Z,81.87
2022-10-19T17:12:10.572Z,81.72
2022-10-19T17:14:39.682Z,81.78
2022-10-19T17:17:06.772Z,82.24
2022-10-19T17:19:34.063Z,82.29
2022-10-19T17:22:02.122Z,82.75
2022-10-19T17:24:29.071Z,83.73
2022-10-19T17:26:55.932Z,84.42
2022-10-19T17:29:23.390Z,83.79
2022-10-19T17:31:50.308Z,84.62
2022-10-19T17:34:17.711Z,84.97
2022-10-19T17:36:45.516Z,84.27
2022-10-19T17:39:18.206Z,84.03
2022-10-19T17:41:47.275Z,83.96
2022-10-19T17:44:14.624Z,83.59
2022-10-19T17:46:42.092Z,83.52
2022-10-19T17:49:09.825Z,84.71
2022-10-19T17:51:37.887Z,85.24
2022-10-19T17:54:11.314Z,84.65
2022-10-19T17:56:38.657Z,84.47
2022-10-19T17:59:07.544Z,84.31
2022-10-19T18:01:34.796Z,84.68
2022-10-19T18:04:01.326Z,84.65
2022-10-19T18:06:31.527Z,85.43
2022-10-19T18:08:59.608Z,86.11
2022-10-19T18:11:34.586Z,86.97
2022-10-19T18:14:01.369Z,86.68
2022-10-19T18:16:32.490Z,85.55
2022-10-19T18:19:00.789Z,86.46
2022-10-19T18:21:31.123Z,86.71
2022-10-19T18:24:00.088Z,87.08
2022-10-19T18:26:29.168Z,87.20
2022-10-19T18:28:56.792Z,86.97
2022-10-19T18:31:26.130Z,86.61
2022-10-19T18:34:01.816Z,86.55
2022-10-19T18:36:28.648Z,87.59
2022-10-19T18:38:58.340Z,86.46
2022-10-19T18:41:25.383Z,86.25
2022-10-19T18:43:57.739Z,85.97
2022-10-19T18:46:25.611Z,85.82
2022-10-19T18:48:53.567Z,86.32
2022-10-19T18:51:21.943Z,85.43
2022-10-19T18:53:48.592Z,85.81
2022-10-19T18:56:18.069Z,86.71
2022-10-19T18:58:45.347Z,86.36
2022-10-19T19:01:15.064Z,85.95
2022-10-19T19:03:43.464Z,85.57
2022-10-19T19:06:17.324Z,85.25
2022-10-19T19:08:46.897Z,85.55
2022-10-19T19:11:20.973Z,85.77
2022-10-19T19:14:12.457Z,85.87
2022-10-19T19:16:39.837Z,85.43
2022-10-19T19:19:07.357Z,85.67
2022-10-19T19:21:35.599Z,86.61
2022-10-19T19:24:05.046Z,87.20
2022-10-19T19:26:32.892Z,87.41
2022-10-19T19:28:59.851Z,86.68
2022-10-19T19:31:26.823Z,86.75
2022-10-19T19:33:53.610Z,87.71
2022-10-19T19:36:20.649Z,87.78
2022-10-19T19:38:49.037Z,87.99
2022-10-19T19:41:16.500Z,87.86
2022-10-19T19:43:43.681Z,87.20
2022-10-19T19:46:18.585Z,87.21
2022-10-19T19:48:46.896Z,88.01
2022-10-19T19:51:19.520Z,86.96
2022-10-19T19:53:47.924Z,86.92
2022-10-19T19:56:16.387Z,87.45
2022-10-19T19:58:44.207Z,87.59
2022-10-19T20:01:12.513Z,87.14
2022-10-19T20:03:41.189Z,87.44
2022-10-19T20:06:08.032Z,88.13
2022-10-19T20:08:36.351Z,88.23
2022-10-19T20:11:05.908Z,87.75
2022-10-19T20:13:33.476Z,88.14
2022-10-19T20:16:06.998Z,89.20
2022-10-19T20:18:33.605Z,89.05
2022-10-19T20:21:04.704Z,88.11
2022-10-19T20:23:31.569Z,88.12
2022-10-19T20:25:58.295Z,88.83
2022-10-19T20:28:26.438Z,89.22
2022-10-19T20:31:03.360Z,88.76
2022-10-19T20:33:32.069Z,89.68
2022-10-19T20:36:08.399Z,88.80
2022-10-19T20:38:37.210Z,88.87
2022-10-19T20:41:08.486Z,89.32
2022-10-19T20:43:37.131Z,89.71
2022-10-19T20:46:04.787Z,89.40
2022-10-19T20:48:31.839Z,89.21
2022-10-19T20:51:31.901Z,90.22
2022-10-19T20:54:01.342Z,89.69
2022-10-19T20:56:33.065Z,89.96
2022-10-19T21:09:01.894Z,88.65
2022-10-19T21:11:31.644Z,89.41
2022-10-19T21:14:00.648Z,88.75
2022-10-19T21:16:29.904Z,89.02
2022-10-19T21:18:57.288Z,88.89
2022-10-19T21:21:29.885Z,89.48
2022-10-19T21:24:04.312Z,89.62
2022-10-19T21:26:32.681Z,89.16
2022-10-19T21:28:59.233Z,89.24
2022-10-19T21:31:26.744Z,89.06
2022-10-19T21:33:53.994Z,89.85
2022-10-19T21:36:22.220Z,89.90
2022-10-19T21:38:48.811Z,90.05
2022-10-19T21:41:20.933Z,90.59
2022-10-19T21:43:50.753Z,90.76
2022-10-19T21:46:20.568Z,90.09
2022-10-19T21:48:47.947Z,91.02
2022-10-19T21:51:23.316Z,90.15
2022-10-19T21:53:50.399Z,89.98
2022-10-19T21:56:17.281Z,91.29
2022-10-19T21:58:45.546Z,90.80
2022-10-19T22:01:12.478Z,90.60
2022-10-19T22:03:39.050Z,90.76
2022-10-19T22:06:05.829Z,91.30
2022-10-19T22:08:32.749Z,92.21
2022-10-19T22:11:05.931Z,91.43
2022-10-19T22:13:33.438Z,91.78
2022-10-19T22:16:26.955Z,92.38
2022-10-19T22:18:54.181Z,91.63
2022-10-19T22:21:25.559Z,90.80
2022-10-19T22:23:55.731Z,91.69
2022-10-19T22:26:26.621Z,92.70
2022-10-19T22:28:56.829Z,92.45
2022-10-19T22:31:24.632Z,93.12
2022-10-19T22:33:51.173Z,92.50
2022-10-19T22:36:18.345Z,92.89
2022-10-19T22:38:44.974Z,91.96
2022-10-19T22:41:11.507Z,91.47
2022-10-19T22:43:38.024Z,90.92
2022-10-19T22:46:04.583Z,91.21
2022-10-19T22:48:31.176Z,91.20
2022-10-19T22:50:57.725Z,91.73
2022-10-19T22:53:24.657Z,91.84
2022-10-19T22:55:51.482Z,92.04
2022-10-19T22:58:18.741Z,91.78
2022-10-19T23:00:45.511Z,91.46
2022-10-19T23:03:12.058Z,90.88
2022-10-19T23:05:38.600Z,91.23
2022-10-19T23:08:05.459Z,91.49
2022-10-19T23:10:32.683Z,91.41
2022-10-19T23:12:59.426Z,91.18
2022-10-19T23:15:26.148Z,92.32
2022-10-19T23:17:52.657Z,92.72
2022-10-19T23:20:19.233Z,92.70
2022-10-19T23:22:45.850Z,92.48
2022-10-19T23:25:12.374Z,93.58
2022-10-19T23:27:39.309Z,94.26
2022-10-19T23:30:06.535Z,93.98
2022-10-19T23:32:33.134Z,95.11
2022-10-19T23:34:59.749Z,94.12
2022-10-19T23:37:26.588Z,93.15
2022-10-19T23:39:53.159Z,93.41
2022-10-19T23:42:19.718Z,92.95
2022-10-19T23:44:46.234Z,93.05
2022-10-19T23:47:12.874Z,92.69
2022-10-19T23:49:39.504Z,93.09
2022-10-19T23:52:06.142Z,92.61
2022-10-19T23:54:32.708Z,92.62
2022-10-19T23:56:59.426Z,92.66
2022-10-19T23:59:25.967Z,93.24
